createdAt,value
2019-01-12T00:08:48.479Z,79.93
2019-01-12T00:18:53.946Z,80.23
2019-01-12T00:28:59.407Z,74.80
2019-01-12T00:39:07.871Z,42.67
2019-01-12T00:49:13.503Z,40.93
2019-01-12T00:59:19.498Z,40.37
2019-01-12T01:09:25.355Z,38.27
2019-01-12T01:19:30.789Z,37.50
2019-01-12T01:29:36.842Z,36.27
2019-01-12T01:39:42.502Z,34.97
2019-01-12T01:49:47.922Z,33.83
2019-01-12T01:59:54.911Z,32.90
2019-01-12T02:10:00.395Z,32.13
2019-01-12T02:20:06.115Z,31.70
2019-01-12T02:30:19.391Z,30.50
2019-01-12T02:40:24.845Z,30.03
2019-01-12T02:50:30.218Z,29.47
2019-01-12T03:00:35.771Z,28.23
2019-01-12T03:10:41.331Z,27.47
2019-01-12T03:20:46.653Z,26.53
2019-01-12T03:30:52.098Z,26.00
2019-01-12T03:40:57.584Z,24.10
2019-01-12T03:51:03.006Z,24.63
2019-01-12T04:01:08.327Z,23.67
2019-01-12T04:11:13.668Z,23.37
2019-01-12T04:21:19.623Z,22.63
2019-01-12T04:31:25.020Z,22.27
2019-01-12T04:41:30.405Z,21.60
2019-01-12T04:51:36.045Z,21.43
2019-01-12T05:01:41.412Z,20.10
2019-01-12T05:11:47.120Z,19.90
2019-01-12T05:21:54.854Z,19.63
2019-01-12T05:32:00.301Z,18.80
2019-01-12T05:42:05.746Z,18.87
2019-01-12T05:52:11.294Z,18.07
2019-01-12T06:02:16.823Z,18.10
2019-01-12T06:12:22.260Z,17.37
2019-01-12T06:22:27.732Z,16.90
2019-01-12T06:32:35.305Z,15.60
2019-01-12T06:42:40.680Z,15.67
2019-01-12T06:52:47.013Z,15.63
2019-01-12T07:02:52.447Z,15.33
2019-01-12T07:12:57.776Z,15.90
2019-01-12T07:23:03.166Z,14.47
2019-01-12T07:33:08.739Z,15.13
2019-01-12T07:43:14.223Z,14.93
2019-01-12T07:53:19.555Z,13.70
2019-01-12T08:52:20.527Z,12.43
2019-01-12T09:02:25.938Z,11.83
2019-01-12T09:12:32.483Z,11.93
2019-01-12T09:22:37.877Z,11.00
2019-01-12T09:32:43.822Z,11.23
2019-01-12T09:42:49.457Z,10.63
2019-01-12T09:52:55.022Z,10.33
2019-01-12T10:03:01.838Z,10.57
2019-01-12T10:13:07.591Z,9.63
2019-01-12T10:23:12.989Z,9.90
2019-01-12T10:33:18.480Z,10.27
2019-01-12T10:43:23.946Z,9.67
2019-01-12T10:53:29.504Z,8.37
2019-01-12T11:03:37.200Z,6.93
2019-01-12T11:13:43.150Z,7.70
2019-01-12T11:23:48.754Z,7.00
2019-01-12T11:33:54.281Z,5.67
2019-01-12T11:43:59.878Z,5.70
2019-01-12T11:54:06.010Z,5.50
2019-01-12T12:04:11.548Z,5.90
2019-01-12T12:14:17.394Z,5.00
2019-01-12T12:24:23.237Z,4.67
2019-01-12T12:34:28.706Z,4.90
2019-01-12T12:44:35.328Z,4.10
2019-01-12T12:54:40.810Z,3.93
2019-01-12T13:04:46.754Z,4.67
2019-01-12T13:14:52.857Z,5.70
2019-01-12T13:24:58.302Z,5.07
2019-01-12T13:35:04.410Z,4.90
2019-01-12T13:45:16.164Z,5.13
2019-01-12T13:55:22.930Z,4.67
2019-01-12T14:05:28.484Z,6.93
2019-01-12T14:15:34.421Z,9.37
2019-01-12T14:25:40.193Z,5.10
2019-01-12T14:35:45.631Z,4.60
2019-01-12T14:45:51.025Z,4.30
2019-01-12T14:55:56.408Z,4.50
2019-01-12T15:06:01.842Z,4.50
2019-01-12T15:16:08.465Z,4.80
2019-01-12T15:26:13.853Z,4.70
2019-01-12T15:36:19.379Z,111.67
2019-01-12T15:46:24.836Z,122.20
2019-01-12T15:56:30.352Z,101.87
2019-01-12T16:06:35.755Z,96.87
2019-01-12T16:16:41.526Z,88.63
2019-01-12T16:26:47.052Z,164.23
2019-01-12T16:36:54.485Z,70.33
2019-01-12T16:46:59.884Z,52.50
2019-01-12T16:57:05.243Z,50.83
2019-01-12T17:07:10.666Z,47.97
2019-01-12T17:17:17.305Z,46.17
2019-01-12T17:27:22.847Z,44.77
2019-01-12T17:37:28.257Z,42.87
2019-01-12T17:47:34.218Z,41.77
2019-01-12T17:57:39.894Z,40.20
2019-01-12T18:07:47.631Z,40.13
2019-01-12T18:17:53.041Z,37.90
2019-01-12T18:27:58.435Z,35.63
2019-01-12T18:38:03.896Z,34.73
2019-01-12T18:48:09.558Z,33.50
2019-01-12T18:58:14.921Z,33.20
2019-01-12T19:08:20.492Z,30.53
2019-01-12T19:18:26.016Z,30.43
2019-01-12T19:28:31.767Z,28.10
2019-01-12T19:38:38.298Z,28.20
2019-01-12T19:48:43.689Z,26.83
2019-01-12T19:58:49.166Z,25.07
2019-01-12T20:08:55.171Z,26.10
2019-01-12T20:19:01.094Z,25.13
2019-01-12T20:29:06.978Z,24.27
2019-01-12T20:40:03.590Z,22.10
2019-01-12T20:50:33.615Z,22.03
2019-01-12T21:01:07.901Z,21.63
2019-01-12T21:12:41.051Z,21.10
2019-01-12T21:22:46.886Z,20.47
2019-01-12T21:32:52.704Z,19.20
2019-01-12T21:42:59.513Z,18.63
2019-01-12T21:53:05.182Z,17.17
2019-01-12T22:03:11.672Z,16.60
2019-01-12T22:13:18.415Z,16.57
2019-01-12T22:23:24.133Z,15.20
2019-01-12T22:33:30.067Z,14.60
2019-01-12T22:43:37.913Z,14.70
2019-01-12T22:53:43.681Z,13.47
2019-01-12T23:03:50.418Z,13.80
2019-01-12T23:13:56.375Z,13.30
2019-01-12T23:24:02.383Z,12.80
2019-01-12T23:34:08.108Z,11.73
2019-01-12T23:44:14.936Z,11.40
2019-01-12T23:54:20.815Z,11.60
